sensor_id;sensor_type;location;lat;lon;timestamp;temperature;humidity
69823;SHT31;57119;52.516;13.508;2023-07-13T00:02:27;17.17;88.21
69823;SHT31;57119;52.516;13.508;2023-07-13T00:04:57;17.18;87.03
69823;SHT31;57119;52.516;13.508;2023-07-13T00:07:28;17.15;87.25
69823;SHT31;57119;52.516;13.508;2023-07-13T00:10:00;17.29;86.49
69823;SHT31;57119;52.516;13.508;2023-07-13T00:12:34;17.29;85.77
69823;SHT31;57119;52.516;13.508;2023-07-13T00:15:04;17.36;85.14
69823;SHT31;57119;52.516;13.508;2023-07-13T00:17:34;17.42;85.18
69823;SHT31;57119;52.516;13.508;2023-07-13T00:20:02;17.52;84.90
69823;SHT31;57119;52.516;13.508;2023-07-13T00:22:27;17.56;85.10
69823;SHT31;57119;52.516;13.508;2023-07-13T00:24:53;17.58;84.83
69823;SHT31;57119;52.516;13.508;2023-07-13T00:27:22;17.62;84.11
69823;SHT31;57119;52.516;13.508;2023-07-13T00:29:52;17.66;84.67
69823;SHT31;57119;52.516;13.508;2023-07-13T00:32:32;17.58;84.34
69823;SHT31;57119;52.516;13.508;2023-07-13T00:34:57;17.59;84.27
69823;SHT31;57119;52.516;13.508;2023-07-13T00:37:30;17.61;84.89
69823;SHT31;57119;52.516;13.508;2023-07-13T00:39:55;17.53;84.75
69823;SHT31;57119;52.516;13.508;2023-07-13T00:42:24;17.48;85.41
69823;SHT31;57119;52.516;13.508;2023-07-13T00:47:43;17.24;86.27
69823;SHT31;57119;52.516;13.508;2023-07-13T00:50:14;17.24;87.54
69823;SHT31;57119;52.516;13.508;2023-07-13T00:53:12;17.04;87.26
69823;SHT31;57119;52.516;13.508;2023-07-13T00:55:49;17.12;87.24
69823;SHT31;57119;52.516;13.508;2023-07-13T00:58:25;17.12;87.70
69823;SHT31;57119;52.516;13.508;2023-07-13T01:01:08;17.06;87.37
69823;SHT31;57119;52.516;13.508;2023-07-13T01:03:39;17.00;87.84
69823;SHT31;57119;52.516;13.508;2023-07-13T01:06:09;16.92;88.47
69823;SHT31;57119;52.516;13.508;2023-07-13T01:08:52;16.73;88.46
69823;SHT31;57119;52.516;13.508;2023-07-13T01:11:19;16.80;89.77
69823;SHT31;57119;52.516;13.508;2023-07-13T01:13:52;16.76;89.04
69823;SHT31;57119;52.516;13.508;2023-07-13T01:16:24;16.61;89.90
69823;SHT31;57119;52.516;13.508;2023-07-13T01:19:06;16.36;89.19
69823;SHT31;57119;52.516;13.508;2023-07-13T01:21:33;16.46;90.11
69823;SHT31;57119;52.516;13.508;2023-07-13T01:24:00;16.34;90.96
69823;SHT31;57119;52.516;13.508;2023-07-13T01:26:27;16.41;90.02
69823;SHT31;57119;52.516;13.508;2023-07-13T01:28:58;16.49;89.81
69823;SHT31;57119;52.516;13.508;2023-07-13T01:31:29;16.45;90.45
69823;SHT31;57119;52.516;13.508;2023-07-13T01:33:55;16.26;91.02
69823;SHT31;57119;52.516;13.508;2023-07-13T01:36:22;16.28;91.19
69823;SHT31;57119;52.516;13.508;2023-07-13T01:38:48;16.13;90.71
69823;SHT31;57119;52.516;13.508;2023-07-13T01:41:13;16.00;91.85
69823;SHT31;57119;52.516;13.508;2023-07-13T01:43:50;16.04;92.35
69823;SHT31;57119;52.516;13.508;2023-07-13T01:46:15;16.04;92.06
69823;SHT31;57119;52.516;13.508;2023-07-13T01:48:40;15.83;92.30
69823;SHT31;57119;52.516;13.508;2023-07-13T01:51:06;15.78;92.93
69823;SHT31;57119;52.516;13.508;2023-07-13T01:53:59;15.77;93.09
69823;SHT31;57119;52.516;13.508;2023-07-13T01:56:24;15.74;93.05
69823;SHT31;57119;52.516;13.508;2023-07-13T01:58:54;15.74;93.24
69823;SHT31;57119;52.516;13.508;2023-07-13T02:01:31;15.81;92.79
69823;SHT31;57119;52.516;13.508;2023-07-13T02:03:59;15.80;93.04
69823;SHT31;57119;52.516;13.508;2023-07-13T02:06:33;15.57;92.78
69823;SHT31;57119;52.516;13.508;2023-07-13T02:08:58;15.60;93.69
69823;SHT31;57119;52.516;13.508;2023-07-13T02:11:45;15.54;93.78
69823;SHT31;57119;52.516;13.508;2023-07-13T02:14:25;15.53;93.84
69823;SHT31;57119;52.516;13.508;2023-07-13T02:16:59;15.53;93.91
69823;SHT31;57119;52.516;13.508;2023-07-13T02:19:25;15.40;94.58
69823;SHT31;57119;52.516;13.508;2023-07-13T02:21:54;15.42;94.67
69823;SHT31;57119;52.516;13.508;2023-07-13T02:24:19;15.26;94.58
69823;SHT31;57119;52.516;13.508;2023-07-13T02:26:54;15.37;95.11
69823;SHT31;57119;52.516;13.508;2023-07-13T02:29:20;15.35;95.13
69823;SHT31;57119;52.516;13.508;2023-07-13T02:31:45;15.32;95.45
69823;SHT31;57119;52.516;13.508;2023-07-13T02:34:29;15.35;95.04
69823;SHT31;57119;52.516;13.508;2023-07-13T02:36:54;15.29;95.50
69823;SHT31;57119;52.516;13.508;2023-07-13T02:39:19;15.26;95.51
69823;SHT31;57119;52.516;13.508;2023-07-13T02:41:45;15.26;94.83
69823;SHT31;57119;52.516;13.508;2023-07-13T02:44:13;15.16;95.37
69823;SHT31;57119;52.516;13.508;2023-07-13T02:46:38;15.18;95.56
69823;SHT31;57119;52.516;13.508;2023-07-13T02:49:04;15.23;95.20
69823;SHT31;57119;52.516;13.508;2023-07-13T02:51:30;15.16;95.59
69823;SHT31;57119;52.516;13.508;2023-07-13T02:53:55;15.02;96.07
69823;SHT31;57119;52.516;13.508;2023-07-13T02:56:27;15.02;96.30
69823;SHT31;57119;52.516;13.508;2023-07-13T02:58:53;14.88;95.96
69823;SHT31;57119;52.516;13.508;2023-07-13T03:01:26;14.93;96.17
69823;SHT31;57119;52.516;13.508;2023-07-13T03:03:52;14.89;96.02
69823;SHT31;57119;52.516;13.508;2023-07-13T03:06:24;14.82;96.04
69823;SHT31;57119;52.516;13.508;2023-07-13T03:08:49;14.88;96.60
69823;SHT31;57119;52.516;13.508;2023-07-13T03:11:18;14.93;96.69
69823;SHT31;57119;52.516;13.508;2023-07-13T03:13:44;14.96;97.16
69823;SHT31;57119;52.516;13.508;2023-07-13T03:16:10;14.81;96.69
69823;SHT31;57119;52.516;13.508;2023-07-13T03:18:36;14.92;97.27
69823;SHT31;57119;52.516;13.508;2023-07-13T03:21:02;14.87;97.33
69823;SHT31;57119;52.516;13.508;2023-07-13T03:23:28;14.96;97.40
69823;SHT31;57119;52.516;13.508;2023-07-13T03:26:15;15.08;97.08
69823;SHT31;57119;52.516;13.508;2023-07-13T03:28:41;15.05;97.10
69823;SHT31;57119;52.516;13.508;2023-07-13T03:31:28;14.99;97.45
69823;SHT31;57119;52.516;13.508;2023-07-13T03:33:59;15.06;97.32
69823;SHT31;57119;52.516;13.508;2023-07-13T03:36:29;15.19;97.60
69823;SHT31;57119;52.516;13.508;2023-07-13T03:39:21;15.25;97.69
69823;SHT31;57119;52.516;13.508;2023-07-13T03:41:47;15.42;97.53
69823;SHT31;57119;52.516;13.508;2023-07-13T03:44:12;15.43;97.10
69823;SHT31;57119;52.516;13.508;2023-07-13T03:46:38;15.58;96.79
69823;SHT31;57119;52.516;13.508;2023-07-13T03:49:04;15.51;96.80
69823;SHT31;57119;52.516;13.508;2023-07-13T03:51:30;15.64;96.88
69823;SHT31;57119;52.516;13.508;2023-07-13T03:53:56;15.68;96.82
69823;SHT31;57119;52.516;13.508;2023-07-13T03:56:22;15.74;96.93
69823;SHT31;57119;52.516;13.508;2023-07-13T03:58:49;15.73;96.94
69823;SHT31;57119;52.516;13.508;2023-07-13T04:01:23;15.75;97.21
69823;SHT31;57119;52.516;13.508;2023-07-13T04:03:50;15.83;96.89
69823;SHT31;57119;52.516;13.508;2023-07-13T04:06:29;15.97;96.72
69823;SHT31;57119;52.516;13.508;2023-07-13T04:08:57;15.98;96.59
69823;SHT31;57119;52.516;13.508;2023-07-13T04:11:31;16.01;95.97
69823;SHT31;57119;52.516;13.508;2023-07-13T04:13:58;15.98;95.73
69823;SHT31;57119;52.516;13.508;2023-07-13T04:16:24;16.04;95.79
69823;SHT31;57119;52.516;13.508;2023-07-13T04:18:56;16.15;95.64
69823;SHT31;57119;52.516;13.508;2023-07-13T04:21:31;16.23;94.29
69823;SHT31;57119;52.516;13.508;2023-07-13T04:24:06;16.39;93.75
69823;SHT31;57119;52.516;13.508;2023-07-13T04:30:15;16.88;91.53
69823;SHT31;57119;52.516;13.508;2023-07-13T04:33:02;17.00;91.28
69823;SHT31;57119;52.516;13.508;2023-07-13T04:35:48;17.08;90.91
69823;SHT31;57119;52.516;13.508;2023-07-13T04:38:15;17.28;90.28
69823;SHT31;57119;52.516;13.508;2023-07-13T04:40:49;17.35;89.60
69823;SHT31;57119;52.516;13.508;2023-07-13T04:43:17;17.46;89.88
69823;SHT31;57119;52.516;13.508;2023-07-13T04:45:46;17.56;89.18
69823;SHT31;57119;52.516;13.508;2023-07-13T04:48:14;17.72;88.36
69823;SHT31;57119;52.516;13.508;2023-07-13T04:53:32;17.91;87.87
69823;SHT31;57119;52.516;13.508;2023-07-13T04:56:11;18.03;87.40
69823;SHT31;57119;52.516;13.508;2023-07-13T04:58:37;18.07;87.47
69823;SHT31;57119;52.516;13.508;2023-07-13T05:01:06;18.17;87.12
69823;SHT31;57119;52.516;13.508;2023-07-13T05:03:39;18.23;86.98
69823;SHT31;57119;52.516;13.508;2023-07-13T05:06:07;18.30;86.57
69823;SHT31;57119;52.516;13.508;2023-07-13T05:08:46;18.47;86.18
69823;SHT31;57119;52.516;13.508;2023-07-13T05:11:20;18.59;85.40
69823;SHT31;57119;52.516;13.508;2023-07-13T05:13:47;18.71;85.38
69823;SHT31;57119;52.516;13.508;2023-07-13T05:16:12;18.82;84.51
69823;SHT31;57119;52.516;13.508;2023-07-13T05:18:38;18.88;84.52
69823;SHT31;57119;52.516;13.508;2023-07-13T05:21:06;18.88;84.50
69823;SHT31;57119;52.516;13.508;2023-07-13T05:23:33;19.02;84.00
69823;SHT31;57119;52.516;13.508;2023-07-13T05:25:59;19.10;84.09
69823;SHT31;57119;52.516;13.508;2023-07-13T05:28:26;19.19;83.82
69823;SHT31;57119;52.516;13.508;2023-07-13T05:31:04;19.27;83.36
69823;SHT31;57119;52.516;13.508;2023-07-13T05:33:30;19.35;83.34
69823;SHT31;57119;52.516;13.508;2023-07-13T05:35:58;19.43;83.32
69823;SHT31;57119;52.516;13.508;2023-07-13T05:38:26;19.58;82.61
69823;SHT31;57119;52.516;13.508;2023-07-13T05:41:00;19.69;81.78
69823;SHT31;57119;52.516;13.508;2023-07-13T05:43:26;19.77;81.87
69823;SHT31;57119;52.516;13.508;2023-07-13T05:45:56;19.93;80.90
69823;SHT31;57119;52.516;13.508;2023-07-13T05:48:22;20.05;81.23
69823;SHT31;57119;52.516;13.508;2023-07-13T05:50:47;20.19;80.30
69823;SHT31;57119;52.516;13.508;2023-07-13T05:53:13;20.23;79.80
69823;SHT31;57119;52.516;13.508;2023-07-13T05:55:47;20.27;80.47
69823;SHT31;57119;52.516;13.508;2023-07-13T05:58:13;20.36;80.30
69823;SHT31;57119;52.516;13.508;2023-07-13T06:00:39;20.44;79.44
69823;SHT31;57119;52.516;13.508;2023-07-13T06:03:05;20.54;78.99
69823;SHT31;57119;52.516;13.508;2023-07-13T06:05:32;20.57;78.72
69823;SHT31;57119;52.516;13.508;2023-07-13T06:07:59;20.61;78.57
69823;SHT31;57119;52.516;13.508;2023-07-13T06:10:24;20.65;78.54
69823;SHT31;57119;52.516;13.508;2023-07-13T06:12:49;20.60;78.73
69823;SHT31;57119;52.516;13.508;2023-07-13T06:15:15;20.60;79.11
69823;SHT31;57119;52.516;13.508;2023-07-13T06:17:41;20.60;78.48
69823;SHT31;57119;52.516;13.508;2023-07-13T06:23:30;20.67;78.85
69823;SHT31;57119;52.516;13.508;2023-07-13T06:26:10;20.77;78.59
69823;SHT31;57119;52.516;13.508;2023-07-13T06:29:11;20.99;77.95
69823;SHT31;57119;52.516;13.508;2023-07-13T06:31:45;21.11;78.04
69823;SHT31;57119;52.516;13.508;2023-07-13T06:34:19;21.22;77.96
69823;SHT31;57119;52.516;13.508;2023-07-13T06:36:47;21.45;77.71
69823;SHT31;57119;52.516;13.508;2023-07-13T06:39:12;21.62;77.11
69823;SHT31;57119;52.516;13.508;2023-07-13T06:41:38;21.69;76.74
69823;SHT31;57119;52.516;13.508;2023-07-13T06:44:12;21.91;76.26
69823;SHT31;57119;52.516;13.508;2023-07-13T06:46:43;22.11;75.71
69823;SHT31;57119;52.516;13.508;2023-07-13T06:49:18;22.18;75.22
69823;SHT31;57119;52.516;13.508;2023-07-13T06:51:49;22.39;74.76
69823;SHT31;57119;52.516;13.508;2023-07-13T06:54:15;22.56;74.57
69823;SHT31;57119;52.516;13.508;2023-07-13T06:56:40;22.77;74.29
69823;SHT31;57119;52.516;13.508;2023-07-13T06:59:06;22.95;74.59
69823;SHT31;57119;52.516;13.508;2023-07-13T07:01:45;23.03;73.33
69823;SHT31;57119;52.516;13.508;2023-07-13T07:04:10;22.96;72.76
69823;SHT31;57119;52.516;13.508;2023-07-13T07:06:36;22.46;72.33
69823;SHT31;57119;52.516;13.508;2023-07-13T07:09:01;22.69;74.23
69823;SHT31;57119;52.516;13.508;2023-07-13T07:11:27;23.02;73.13
69823;SHT31;57119;52.516;13.508;2023-07-13T07:13:53;23.10;70.46
69823;SHT31;57119;52.516;13.508;2023-07-13T07:16:19;23.21;70.68
69823;SHT31;57119;52.516;13.508;2023-07-13T07:18:46;23.08;69.77
69823;SHT31;57119;52.516;13.508;2023-07-13T07:21:12;23.38;70.06
69823;SHT31;57119;52.516;13.508;2023-07-13T07:23:38;23.38;70.15
69823;SHT31;57119;52.516;13.508;2023-07-13T07:26:12;23.50;69.33
69823;SHT31;57119;52.516;13.508;2023-07-13T07:29:18;23.86;69.61
69823;SHT31;57119;52.516;13.508;2023-07-13T07:31:47;24.20;67.97
69823;SHT31;57119;52.516;13.508;2023-07-13T07:34:48;24.71;67.08
69823;SHT31;57119;52.516;13.508;2023-07-13T07:37:43;25.14;65.58
69823;SHT31;57119;52.516;13.508;2023-07-13T07:40:08;25.20;63.90
69823;SHT31;57119;52.516;13.508;2023-07-13T07:42:34;24.78;64.42
69823;SHT31;57119;52.516;13.508;2023-07-13T07:45:12;25.22;64.33
69823;SHT31;57119;52.516;13.508;2023-07-13T07:47:38;24.98;64.73
69823;SHT31;57119;52.516;13.508;2023-07-13T07:53:15;25.05;63.32
69823;SHT31;57119;52.516;13.508;2023-07-13T07:59:13;26.26;62.46
69823;SHT31;57119;52.516;13.508;2023-07-13T08:01:41;26.66;63.24
69823;SHT31;57119;52.516;13.508;2023-07-13T08:04:21;25.66;62.60
69823;SHT31;57119;52.516;13.508;2023-07-13T08:06:47;25.30;63.72
69823;SHT31;57119;52.516;13.508;2023-07-13T08:09:13;25.15;64.63
69823;SHT31;57119;52.516;13.508;2023-07-13T08:11:44;25.15;63.67
69823;SHT31;57119;52.516;13.508;2023-07-13T08:14:31;25.78;63.30
69823;SHT31;57119;52.516;13.508;2023-07-13T08:17:26;25.63;63.48
69823;SHT31;57119;52.516;13.508;2023-07-13T08:19:51;25.53;62.62
69823;SHT31;57119;52.516;13.508;2023-07-13T08:22:21;25.22;63.52
69823;SHT31;57119;52.516;13.508;2023-07-13T08:24:47;25.42;63.77
69823;SHT31;57119;52.516;13.508;2023-07-13T08:27:20;26.32;62.25
69823;SHT31;57119;52.516;13.508;2023-07-13T08:29:47;26.21;62.11
69823;SHT31;57119;52.516;13.508;2023-07-13T08:32:13;25.73;63.64
69823;SHT31;57119;52.516;13.508;2023-07-13T08:34:39;25.80;61.91
69823;SHT31;57119;52.516;13.508;2023-07-13T08:37:05;25.45;61.56
69823;SHT31;57119;52.516;13.508;2023-07-13T08:39:31;25.73;62.39
69823;SHT31;57119;52.516;13.508;2023-07-13T08:42:19;25.39;62.36
69823;SHT31;57119;52.516;13.508;2023-07-13T08:48:13;25.29;62.06
69823;SHT31;57119;52.516;13.508;2023-07-13T08:50:52;25.11;62.40
69823;SHT31;57119;52.516;13.508;2023-07-13T08:53:19;25.12;62.34
69823;SHT31;57119;52.516;13.508;2023-07-13T08:55:46;24.71;62.87
69823;SHT31;57119;52.516;13.508;2023-07-13T08:58:14;24.58;65.21
69823;SHT31;57119;52.516;13.508;2023-07-13T09:03:46;24.26;65.39
69823;SHT31;57119;52.516;13.508;2023-07-13T09:06:16;24.26;65.07
69823;SHT31;57119;52.516;13.508;2023-07-13T09:09:08;24.06;65.51
69823;SHT31;57119;52.516;13.508;2023-07-13T09:11:49;24.36;64.22
69823;SHT31;57119;52.516;13.508;2023-07-13T09:17:04;26.53;60.00
69823;SHT31;57119;52.516;13.508;2023-07-13T09:19:32;27.30;59.22
69823;SHT31;57119;52.516;13.508;2023-07-13T09:21:59;27.30;59.33
69823;SHT31;57119;52.516;13.508;2023-07-13T09:27:02;27.65;57.51
69823;SHT31;57119;52.516;13.508;2023-07-13T09:29:33;28.76;55.37
69823;SHT31;57119;52.516;13.508;2023-07-13T09:32:04;28.82;54.26
69823;SHT31;57119;52.516;13.508;2023-07-13T09:34:32;28.64;54.30
69823;SHT31;57119;52.516;13.508;2023-07-13T09:36:58;28.68;54.85
69823;SHT31;57119;52.516;13.508;2023-07-13T09:39:39;28.69;53.98
69823;SHT31;57119;52.516;13.508;2023-07-13T09:42:16;29.19;53.91
69823;SHT31;57119;52.516;13.508;2023-07-13T09:44:56;29.57;53.45
69823;SHT31;57119;52.516;13.508;2023-07-13T09:47:26;30.31;50.60
69823;SHT31;57119;52.516;13.508;2023-07-13T09:50:15;29.49;51.79
69823;SHT31;57119;52.516;13.508;2023-07-13T09:52:46;29.91;51.20
69823;SHT31;57119;52.516;13.508;2023-07-13T09:55:33;30.31;51.70
69823;SHT31;57119;52.516;13.508;2023-07-13T09:58:20;30.56;49.13
69823;SHT31;57119;52.516;13.508;2023-07-13T10:01:04;28.58;51.60
69823;SHT31;57119;52.516;13.508;2023-07-13T10:03:34;29.09;51.19
69823;SHT31;57119;52.516;13.508;2023-07-13T10:06:18;29.56;51.05
69823;SHT31;57119;52.516;13.508;2023-07-13T10:08:45;29.66;50.86
69823;SHT31;57119;52.516;13.508;2023-07-13T10:11:21;29.94;49.93
69823;SHT31;57119;52.516;13.508;2023-07-13T10:14:00;28.92;51.05
69823;SHT31;57119;52.516;13.508;2023-07-13T10:16:32;28.62;51.82
69823;SHT31;57119;52.516;13.508;2023-07-13T10:19:02;28.27;52.93
69823;SHT31;57119;52.516;13.508;2023-07-13T10:21:37;28.87;52.71
69823;SHT31;57119;52.516;13.508;2023-07-13T10:24:20;29.12;51.89
69823;SHT31;57119;52.516;13.508;2023-07-13T10:26:51;29.81;51.23
69823;SHT31;57119;52.516;13.508;2023-07-13T10:29:18;29.95;50.72
69823;SHT31;57119;52.516;13.508;2023-07-13T10:31:45;29.74;51.40
69823;SHT31;57119;52.516;13.508;2023-07-13T10:34:11;30.79;49.80
69823;SHT31;57119;52.516;13.508;2023-07-13T10:36:45;30.22;50.28
69823;SHT31;57119;52.516;13.508;2023-07-13T10:39:19;28.18;52.70
69823;SHT31;57119;52.516;13.508;2023-07-13T10:41:50;26.62;54.46
69823;SHT31;57119;52.516;13.508;2023-07-13T10:44:21;27.30;54.30
69823;SHT31;57119;52.516;13.508;2023-07-13T10:46:51;28.48;53.58
69823;SHT31;57119;52.516;13.508;2023-07-13T10:49:18;28.74;51.03
69823;SHT31;57119;52.516;13.508;2023-07-13T10:51:44;27.72;52.25
69823;SHT31;57119;52.516;13.508;2023-07-13T10:56:39;28.07;50.86
69823;SHT31;57119;52.516;13.508;2023-07-13T10:59:11;29.27;51.61
69823;SHT31;57119;52.516;13.508;2023-07-13T11:01:55;27.89;52.06
69823;SHT31;57119;52.516;13.508;2023-07-13T11:04:22;28.95;50.67
69823;SHT31;57119;52.516;13.508;2023-07-13T11:06:53;28.62;50.07
69823;SHT31;57119;52.516;13.508;2023-07-13T11:09:40;28.98;49.94
69823;SHT31;57119;52.516;13.508;2023-07-13T11:25:29;31.07;47.24
69823;SHT31;57119;52.516;13.508;2023-07-13T11:30:49;31.97;45.83
69823;SHT31;57119;52.516;13.508;2023-07-13T11:33:22;31.76;45.34
69823;SHT31;57119;52.516;13.508;2023-07-13T11:36:02;32.30;46.73
69823;SHT31;57119;52.516;13.508;2023-07-13T11:41:00;33.12;44.38
69823;SHT31;57119;52.516;13.508;2023-07-13T11:43:29;32.27;45.46
69823;SHT31;57119;52.516;13.508;2023-07-13T11:45:54;31.96;45.30
69823;SHT31;57119;52.516;13.508;2023-07-13T11:48:28;32.37;45.31
69823;SHT31;57119;52.516;13.508;2023-07-13T11:51:01;32.03;45.84
69823;SHT31;57119;52.516;13.508;2023-07-13T11:53:29;30.73;46.01
69823;SHT31;57119;52.516;13.508;2023-07-13T11:55:57;30.45;46.79
69823;SHT31;57119;52.516;13.508;2023-07-13T11:58:24;29.87;48.71
69823;SHT31;57119;52.516;13.508;2023-07-13T12:00:50;30.51;48.00
69823;SHT31;57119;52.516;13.508;2023-07-13T12:03:21;31.58;47.00
69823;SHT31;57119;52.516;13.508;2023-07-13T12:06:02;30.94;46.70
69823;SHT31;57119;52.516;13.508;2023-07-13T12:08:28;32.24;46.51
69823;SHT31;57119;52.516;13.508;2023-07-13T12:11:03;31.52;46.78
69823;SHT31;57119;52.516;13.508;2023-07-13T12:13:37;32.45;45.99
69823;SHT31;57119;52.516;13.508;2023-07-13T12:16:15;31.48;45.34
69823;SHT31;57119;52.516;13.508;2023-07-13T12:18:42;32.16;45.77
69823;SHT31;57119;52.516;13.508;2023-07-13T12:21:13;32.21;45.00
69823;SHT31;57119;52.516;13.508;2023-07-13T12:23:39;32.78;44.37
69823;SHT31;57119;52.516;13.508;2023-07-13T12:26:09;32.94;44.94
69823;SHT31;57119;52.516;13.508;2023-07-13T12:28:44;32.30;45.66
69823;SHT31;57119;52.516;13.508;2023-07-13T12:31:45;32.63;45.72
69823;SHT31;57119;52.516;13.508;2023-07-13T12:34:15;31.61;46.57
69823;SHT31;57119;52.516;13.508;2023-07-13T12:36:54;32.24;46.36
69823;SHT31;57119;52.516;13.508;2023-07-13T12:39:46;32.64;46.13
69823;SHT31;57119;52.516;13.508;2023-07-13T12:42:23;31.86;46.15
69823;SHT31;57119;52.516;13.508;2023-07-13T12:45:05;32.95;46.27
69823;SHT31;57119;52.516;13.508;2023-07-13T12:47:41;33.98;43.95
69823;SHT31;57119;52.516;13.508;2023-07-13T12:50:19;33.64;44.02
69823;SHT31;57119;52.516;13.508;2023-07-13T12:52:51;31.52;44.63
69823;SHT31;57119;52.516;13.508;2023-07-13T12:55:19;31.12;46.33
69823;SHT31;57119;52.516;13.508;2023-07-13T12:57:51;31.99;46.19
69823;SHT31;57119;52.516;13.508;2023-07-13T13:00:33;31.39;45.95
69823;SHT31;57119;52.516;13.508;2023-07-13T13:03:16;31.38;45.98
69823;SHT31;57119;52.516;13.508;2023-07-13T13:05:45;31.00;46.56
69823;SHT31;57119;52.516;13.508;2023-07-13T13:08:11;30.06;47.61
69823;SHT31;57119;52.516;13.508;2023-07-13T13:10:37;30.56;48.31
69823;SHT31;57119;52.516;13.508;2023-07-13T13:13:03;30.90;46.76
69823;SHT31;57119;52.516;13.508;2023-07-13T13:15:28;29.33;48.58
69823;SHT31;57119;52.516;13.508;2023-07-13T13:17:55;29.09;49.11
69823;SHT31;57119;52.516;13.508;2023-07-13T13:20:21;29.13;48.05
69823;SHT31;57119;52.516;13.508;2023-07-13T13:22:47;29.12;48.19
69823;SHT31;57119;52.516;13.508;2023-07-13T13:25:14;30.15;47.38
69823;SHT31;57119;52.516;13.508;2023-07-13T13:27:43;30.43;46.85
69823;SHT31;57119;52.516;13.508;2023-07-13T13:30:14;30.59;46.64
69823;SHT31;57119;52.516;13.508;2023-07-13T13:32:42;30.69;46.60
69823;SHT31;57119;52.516;13.508;2023-07-13T13:35:14;31.31;45.91
69823;SHT31;57119;52.516;13.508;2023-07-13T13:37:40;31.20;45.90
69823;SHT31;57119;52.516;13.508;2023-07-13T13:40:17;30.52;47.62
69823;SHT31;57119;52.516;13.508;2023-07-13T13:42:43;31.86;45.67
69823;SHT31;57119;52.516;13.508;2023-07-13T13:45:12;30.24;47.12
69823;SHT31;57119;52.516;13.508;2023-07-13T13:47:39;29.16;49.32
69823;SHT31;57119;52.516;13.508;2023-07-13T13:50:16;29.03;51.11
69823;SHT31;57119;52.516;13.508;2023-07-13T13:52:42;30.56;48.60
69823;SHT31;57119;52.516;13.508;2023-07-13T13:55:15;31.22;47.31
69823;SHT31;57119;52.516;13.508;2023-07-13T13:57:41;32.07;45.71
69823;SHT31;57119;52.516;13.508;2023-07-13T14:00:09;31.62;45.66
69823;SHT31;57119;52.516;13.508;2023-07-13T14:02:46;31.20;45.80
69823;SHT31;57119;52.516;13.508;2023-07-13T14:05:14;31.10;46.57
69823;SHT31;57119;52.516;13.508;2023-07-13T14:07:41;31.01;46.58
69823;SHT31;57119;52.516;13.508;2023-07-13T14:10:12;30.86;47.59
69823;SHT31;57119;52.516;13.508;2023-07-13T14:12:40;30.39;46.85
69823;SHT31;57119;52.516;13.508;2023-07-13T14:15:06;30.60;46.91
69823;SHT31;57119;52.516;13.508;2023-07-13T14:17:31;30.80;46.42
69823;SHT31;57119;52.516;13.508;2023-07-13T14:19:57;29.22;49.22
69823;SHT31;57119;52.516;13.508;2023-07-13T14:22:27;28.40;50.14
69823;SHT31;57119;52.516;13.508;2023-07-13T14:24:55;28.64;50.43
69823;SHT31;57119;52.516;13.508;2023-07-13T14:27:22;30.18;48.73
69823;SHT31;57119;52.516;13.508;2023-07-13T14:29:48;29.94;47.25
69823;SHT31;57119;52.516;13.508;2023-07-13T14:32:13;29.57;47.07
69823;SHT31;57119;52.516;13.508;2023-07-13T14:34:39;29.45;46.30
69823;SHT31;57119;52.516;13.508;2023-07-13T14:37:05;29.43;46.97
69823;SHT31;57119;52.516;13.508;2023-07-13T14:39:31;29.74;48.26
69823;SHT31;57119;52.516;13.508;2023-07-13T14:41:57;30.05;48.57
69823;SHT31;57119;52.516;13.508;2023-07-13T14:44:28;29.97;48.99
69823;SHT31;57119;52.516;13.508;2023-07-13T14:46:58;28.31;51.08
69823;SHT31;57119;52.516;13.508;2023-07-13T14:49:28;29.05;51.42
69823;SHT31;57119;52.516;13.508;2023-07-13T14:51:56;30.09;48.37
69823;SHT31;57119;52.516;13.508;2023-07-13T14:54:22;30.18;49.07
69823;SHT31;57119;52.516;13.508;2023-07-13T14:56:48;30.72;48.13
69823;SHT31;57119;52.516;13.508;2023-07-13T14:59:13;30.83;47.64
69823;SHT31;57119;52.516;13.508;2023-07-13T15:01:40;30.55;47.62
69823;SHT31;57119;52.516;13.508;2023-07-13T15:04:06;30.05;48.64
69823;SHT31;57119;52.516;13.508;2023-07-13T15:06:58;29.37;49.16
69823;SHT31;57119;52.516;13.508;2023-07-13T15:09:25;29.87;48.68
69823;SHT31;57119;52.516;13.508;2023-07-13T15:11:52;29.95;48.18
69823;SHT31;57119;52.516;13.508;2023-07-13T15:14:18;29.81;48.25
69823;SHT31;57119;52.516;13.508;2023-07-13T15:16:44;29.45;47.98
69823;SHT31;57119;52.516;13.508;2023-07-13T15:19:11;28.72;49.29
69823;SHT31;57119;52.516;13.508;2023-07-13T15:21:36;29.16;49.07
69823;SHT31;57119;52.516;13.508;2023-07-13T15:24:02;29.51;48.53
69823;SHT31;57119;52.516;13.508;2023-07-13T15:26:28;30.43;48.05
69823;SHT31;57119;52.516;13.508;2023-07-13T15:28:53;31.32;45.93
69823;SHT31;57119;52.516;13.508;2023-07-13T15:31:24;32.45;45.19
69823;SHT31;57119;52.516;13.508;2023-07-13T15:33:51;30.97;45.63
69823;SHT31;57119;52.516;13.508;2023-07-13T15:36:18;30.53;46.03
69823;SHT31;57119;52.516;13.508;2023-07-13T15:38:45;30.95;45.69
69823;SHT31;57119;52.516;13.508;2023-07-13T15:41:22;30.60;44.40
69823;SHT31;57119;52.516;13.508;2023-07-13T15:43:50;30.15;46.37
69823;SHT31;57119;52.516;13.508;2023-07-13T15:46:20;30.18;45.91
69823;SHT31;57119;52.516;13.508;2023-07-13T15:48:50;30.63;46.47
69823;SHT31;57119;52.516;13.508;2023-07-13T15:53:46;29.76;46.31
69823;SHT31;57119;52.516;13.508;2023-07-13T15:56:24;29.51;47.33
69823;SHT31;57119;52.516;13.508;2023-07-13T15:58:51;29.61;47.54
69823;SHT31;57119;52.516;13.508;2023-07-13T16:01:17;29.08;47.54
69823;SHT31;57119;52.516;13.508;2023-07-13T16:03:43;28.83;47.95
69823;SHT31;57119;52.516;13.508;2023-07-13T16:06:19;28.68;48.49
69823;SHT31;57119;52.516;13.508;2023-07-13T16:08:48;28.13;49.50
69823;SHT31;57119;52.516;13.508;2023-07-13T16:11:20;28.00;50.10
69823;SHT31;57119;52.516;13.508;2023-07-13T16:13:46;28.51;49.11
69823;SHT31;57119;52.516;13.508;2023-07-13T16:16:13;27.93;50.21
69823;SHT31;57119;52.516;13.508;2023-07-13T16:18:39;27.58;50.67
69823;SHT31;57119;52.516;13.508;2023-07-13T16:21:11;27.12;52.16
69823;SHT31;57119;52.516;13.508;2023-07-13T16:23:37;26.86;52.39
69823;SHT31;57119;52.516;13.508;2023-07-13T16:26:04;26.42;52.21
69823;SHT31;57119;52.516;13.508;2023-07-13T16:28:38;26.28;52.64
69823;SHT31;57119;52.516;13.508;2023-07-13T16:31:03;26.38;52.91
69823;SHT31;57119;52.516;13.508;2023-07-13T16:33:29;26.25;52.56